Archival Weather

Chicago O'Hare International

Chicago, Illinois (KORD)

Report from: Monday, January 23, 2023 3:19 AM CST
Current time: Thursday, July 18, 2024 10:29 PM CDT

Current weather – Weather history – Daily summaries
Weather forecast

Present weatherLight snow, mist
Temperature-5.0°C (23.0°F)
Wind chill-10.5°C (13.1°F)
Dew point-7.2°C (19.0°F)
Winds 8 kts (4.1 m/s, 9.2 mph) West (260°)
Visibility3 mi. (4.8 km)
Clouds Ceiling: Overcast 600 ft. (183 m)
Altimeter30.01 in.Hg (1016 mB)
PrecipitiationTrace
Precip. events Snow ended 9:02 AM
Snow began 9:17 AM
Relative humidity85 %
Density altitude-2,518 ft. (-767 m)
Remarks System requires maintenance
Automated weather observing station with precipitation discriminator
Visibility south southwest
Flight conditions Instrument Meteorological Conditions
Raw dataKORD 230919Z 26008KT 3SM -SN BR OVC006 M05/M07 A3001 RMK AO2 SNE02B17 VIS S-SW 1 1/2 P0000 T10501072 $
An error has occurred. This application may no longer respond until reloaded. Reload 🗙